Time;durP1;ratioP1;P1;durP2;ratioP2;P2;SDS_P1;SDS_P2;PMS_P1;PMS_P2;Temp;Humidity;BMP_temperature;BMP_pressure;BME280_temperature;BME280_humidity;BME280_pressure;Samples;Min_cycle;Max_cycle;Signal;HPM_P1;HPM_P2
2021/03/21 00:00:45;;;;;;;33.75;23.05;;;7.10;86.90;;;;;;4993316;28;20044;-74
2021/03/21 00:03:12;;;;;;;34.67;23.73;;;7.10;86.80;;;;;;5003454;28;20034;-73
2021/03/21 00:05:38;;;;;;;31.70;23.25;;;7.10;86.90;;;;;;5012924;28;20038;-72
2021/03/21 00:08:16;;;;;;;32.22;22.67;;;7.10;86.80;;;;;;5000959;28;20465;-72
2021/03/21 00:10:47;;;;;;;32.28;21.55;;;7.10;86.60;;;;;;4999682;28;20417;-75
2021/03/21 00:13:13;;;;;;;31.42;22.55;;;7.20;86.60;;;;;;5001925;28;20034;-75
2021/03/21 00:15:39;;;;;;;33.20;23.13;;;7.10;86.50;;;;;;5014075;28;20076;-73
2021/03/21 00:18:05;;;;;;;33.63;23.88;;;7.10;86.50;;;;;;4997427;28;20034;-77
2021/03/21 00:20:33;;;;;;;32.35;24.52;;;7.10;86.70;;;;;;5003336;28;20112;-74
2021/03/21 00:23:00;;;;;;;36.97;25.27;;;7.10;86.70;;;;;;4994373;28;20979;-76
2021/03/21 00:25:29;;;;;;;34.08;24.15;;;7.10;86.80;;;;;;5000514;28;20062;-73
2021/03/21 00:27:55;;;;;;;36.88;26.40;;;7.10;86.80;;;;;;4996136;28;20037;-73
2021/03/21 00:30:30;;;;;;;37.75;26.85;;;7.20;86.60;;;;;;5004587;28;20042;-75
2021/03/21 00:32:56;;;;;;;39.78;27.30;;;7.10;86.70;;;;;;5008379;28;20388;-73
2021/03/21 00:35:22;;;;;;;39.00;28.80;;;7.10;86.60;;;;;;4997221;28;20543;-74
2021/03/21 00:37:48;;;;;;;43.33;28.98;;;7.20;86.50;;;;;;5004210;28;20040;-77
2021/03/21 00:40:19;;;;;;;42.75;30.00;;;7.10;86.70;;;;;;4989647;28;20117;-75
2021/03/21 00:42:45;;;;;;;38.95;27.85;;;7.10;86.60;;;;;;4997382;28;20022;-73
2021/03/21 00:45:12;;;;;;;43.72;29.42;;;7.10;86.60;;;;;;4993644;28;20034;-75
2021/03/21 00:47:38;;;;;;;41.60;29.67;;;7.20;86.60;;;;;;4995043;28;20366;-74
2021/03/21 00:50:10;;;;;;;41.45;27.30;;;7.10;86.60;;;;;;4995127;28;20161;-75
2021/03/21 00:52:36;;;;;;;41.80;29.17;;;7.20;86.50;;;;;;4997838;28;20038;-73
2021/03/21 00:55:03;;;;;;;37.75;26.60;;;7.10;86.50;;;;;;4996614;28;20100;-73
2021/03/21 00:57:29;;;;;;;38.75;28.23;;;7.20;86.40;;;;;;4995194;28;20052;-73
2021/03/21 00:59:54;;;;;;;41.88;29.13;;;7.20;86.40;;;;;;5000450;28;20057;-73
2021/03/21 01:02:20;;;;;;;42.63;30.30;;;7.30;86.40;;;;;;5004371;28;20182;-75
2021/03/21 01:04:47;;;;;;;44.42;30.95;;;7.20;86.30;;;;;;5007375;28;20466;-74
2021/03/21 01:07:13;;;;;;;43.53;29.85;;;7.30;86.20;;;;;;5002118;28;20116;-77
2021/03/21 01:09:39;;;;;;;45.00;29.35;;;7.30;86.30;;;;;;5004585;28;20148;-74
2021/03/21 01:12:05;;;;;;;43.92;28.83;;;7.20;86.40;;;;;;4999105;28;20428;-75
2021/03/21 01:14:31;;;;;;;42.45;29.30;;;7.20;86.50;;;;;;4996639;28;20066;-73
2021/03/21 01:16:56;;;;;;;46.58;28.95;;;7.30;86.40;;;;;;4993002;28;20113;-73
2021/03/21 01:19:22;;;;;;;43.60;29.85;;;7.30;86.30;;;;;;4997902;28;20034;-73
2021/03/21 01:21:48;;;;;;;46.92;31.20;;;7.30;86.30;;;;;;4994742;28;20966;-72
2021/03/21 01:24:21;;;;;;;44.88;29.77;;;7.30;86.40;;;;;;4994532;28;20089;-73
2021/03/21 01:26:47;;;;;;;45.45;28.23;;;7.20;86.50;;;;;;4995291;28;20118;-72
2021/03/21 01:29:13;;;;;;;45.75;28.98;;;7.30;86.60;;;;;;4994579;28;20030;-72
2021/03/21 01:31:39;;;;;;;46.40;30.55;;;7.30;86.50;;;;;;4991981;28;20038;-76
2021/03/21 01:34:04;;;;;;;46.75;30.30;;;7.30;86.70;;;;;;4991103;28;20034;-73
2021/03/21 01:36:36;;;;;;;47.63;29.00;;;7.30;86.70;;;;;;4990370;28;20033;-73
2021/03/21 01:39:09;;;;;;;49.05;28.75;;;7.20;86.90;;;;;;4996525;28;20134;-73
2021/03/21 01:41:38;;;;;;;46.38;30.13;;;7.30;87.00;;;;;;4994335;28;20457;-77
2021/03/21 01:44:14;;;;;;;49.40;30.42;;;7.40;86.80;;;;;;4993440;28;20117;-72
2021/03/21 01:46:56;;;;;;;48.92;29.85;;;7.40;86.70;;;;;;4993885;28;20042;-77
2021/03/21 01:49:29;;;;;;;49.20;29.80;;;7.40;86.70;;;;;;4994195;28;20080;-73
2021/03/21 01:51:57;;;;;;;48.33;30.58;;;7.30;86.70;;;;;;4997475;28;20026;-77
2021/03/21 01:54:24;;;;;;;48.40;30.15;;;7.40;86.70;;;;;;4992862;28;20084;-73
2021/03/21 01:56:51;;;;;;;48.17;31.08;;;7.50;86.70;;;;;;4992531;28;20029;-73
2021/03/21 01:59:32;;;;;;;49.20;31.70;;;7.50;86.60;;;;;;4994471;28;20441;-72
2021/03/21 02:02:00;;;;;;;48.55;30.25;;;7.50;86.70;;;;;;4996188;28;20457;-72
2021/03/21 02:04:26;;;;;;;45.20;30.00;;;7.50;86.70;;;;;;4993278;28;20040;-73
2021/03/21 02:07:13;;;;;;;50.15;31.58;;;7.50;86.60;;;;;;4994920;28;20035;-73
2021/03/21 02:10:15;;;;;;;49.90;30.30;;;7.50;86.50;;;;;;4995016;28;20050;-73
2021/03/21 02:12:49;;;;;;;50.00;30.58;;;7.50;86.50;;;;;;4995451;28;20030;-75
2021/03/21 02:15:36;;;;;;;50.05;30.38;;;7.60;86.40;;;;;;5009630;28;20529;-74
2021/03/21 02:18:18;;;;;;;46.90;29.63;;;7.60;86.50;;;;;;4994613;28;20092;-76
2021/03/21 02:21:02;;;;;;;50.88;31.42;;;7.60;86.60;;;;;;4965227;28;749038;-78
2021/03/21 02:23:42;;;;;;;49.65;29.90;;;7.60;86.50;;;;;;4993833;28;20113;-72
2021/03/21 02:26:41;;;;;;;50.80;32.05;;;7.60;86.50;;;;;;4995921;28;21156;-73
2021/03/21 02:29:42;;;;;;;53.05;32.05;;;7.50;86.60;;;;;;4995085;28;20046;-73
2021/03/21 02:32:15;;;;;;;53.38;32.88;;;7.60;86.40;;;;;;4990625;28;20461;-74
2021/03/21 02:35:19;;;;;;;52.03;32.63;;;7.60;86.40;;;;;;4994818;28;20375;-76
2021/03/21 02:38:08;;;;;;;54.50;34.30;;;7.60;86.50;;;;;;4998474;28;20030;-73
2021/03/21 02:40:47;;;;;;;55.38;34.40;;;7.60;86.60;;;;;;4983901;28;20605;-72
2021/03/21 02:43:27;;;;;;;58.28;35.05;;;7.60;86.70;;;;;;4995186;28;20022;-73
2021/03/21 02:45:56;;;;;;;51.58;32.53;;;7.60;86.70;;;;;;4995595;28;20164;-76
2021/03/21 02:48:28;;;;;;;53.75;34.35;;;7.60;86.60;;;;;;4993378;28;20523;-72
2021/03/21 02:51:19;;;;;;;54.47;33.85;;;7.60;86.70;;;;;;4990073;28;20073;-73
2021/03/21 02:53:59;;;;;;;53.90;33.35;;;7.60;86.70;;;;;;4993766;28;20116;-74
2021/03/21 02:56:28;;;;;;;57.90;35.75;;;7.60;86.60;;;;;;4991113;28;20406;-75
2021/03/21 02:59:04;;;;;;;56.13;34.78;;;7.60;86.60;;;;;;4992138;28;20041;-73
2021/03/21 03:01:34;;;;;;;53.10;34.35;;;7.60;86.70;;;;;;4993179;28;20405;-74
2021/03/21 03:04:14;;;;;;;52.28;33.78;;;7.70;86.70;;;;;;4993484;28;20381;-76
2021/03/21 03:06:47;;;;;;;52.97;33.10;;;7.70;86.50;;;;;;4994480;28;20088;-77
2021/03/21 03:09:19;;;;;;;57.50;33.35;;;7.70;86.40;;;;;;4994825;28;20142;-72
2021/03/21 03:11:58;;;;;;;53.63;32.20;;;7.70;86.40;;;;;;4995770;28;20559;-72
2021/03/21 03:14:35;;;;;;;52.40;32.22;;;7.70;86.40;;;;;;4993360;28;20034;-75
2021/03/21 03:17:09;;;;;;;56.78;34.78;;;7.80;86.40;;;;;;4992765;28;20120;-75
2021/03/21 03:20:13;;;;;;;50.45;34.10;;;7.80;86.30;;;;;;4993602;28;20077;-77
2021/03/21 03:22:52;;;;;;;55.78;33.80;;;7.80;86.30;;;;;;4952668;28;20134;-77
2021/03/21 03:25:27;;;;;;;50.47;32.15;;;7.80;86.40;;;;;;4937805;28;20035;-72
2021/03/21 03:28:11;;;;;;;50.38;31.92;;;7.80;86.10;;;;;;4977406;28;20038;-73
2021/03/21 03:30:58;;;;;;;52.88;33.28;;;7.90;85.90;;;;;;4992067;28;20188;-77
2021/03/21 03:33:25;;;;;;;49.50;32.78;;;7.90;85.90;;;;;;4990317;28;20076;-76
2021/03/21 03:35:50;;;;;;;61.53;37.63;;;7.90;86.10;;;;;;4991318;28;20351;-74
2021/03/21 03:38:17;;;;;;;52.00;34.22;;;7.90;86.10;;;;;;4992776;28;20060;-73
2021/03/21 03:40:45;;;;;;;60.03;38.05;;;7.90;86.10;;;;;;4992208;28;20029;-76
2021/03/21 03:43:23;;;;;;;56.92;36.67;;;7.90;86.20;;;;;;4995425;28;20469;-73
2021/03/21 03:46:09;;;;;;;54.20;37.40;;;7.90;86.20;;;;;;4990507;28;20457;-74
2021/03/21 03:49:09;;;;;;;58.00;36.90;;;7.90;86.30;;;;;;4991455;28;20038;-73
2021/03/21 03:52:03;;;;;;;60.38;38.72;;;8.00;86.30;;;;;;4990620;28;20034;-73
2021/03/21 03:54:33;;;;;;;62.53;39.45;;;8.00;86.30;;;;;;4973770;28;20039;-73
2021/03/21 03:57:13;;;;;;;58.03;37.67;;;8.00;86.50;;;;;;5010367;28;20029;-73
2021/03/21 03:59:54;;;;;;;63.53;40.40;;;8.00;86.60;;;;;;5014533;28;20036;-74
2021/03/21 04:02:44;;;;;;;66.80;41.97;;;8.00;86.90;;;;;;5000340;28;20049;-74
2021/03/21 04:05:27;;;;;;;66.70;43.15;;;8.00;86.90;;;;;;4997593;28;20063;-75
2021/03/21 04:07:59;;;;;;;70.03;43.33;;;8.10;87.10;;;;;;4995953;28;20041;-74
2021/03/21 04:10:35;;;;;;;61.28;42.10;;;8.10;87.10;;;;;;4990171;28;20045;-73
2021/03/21 04:13:27;;;;;;;63.65;42.08;;;8.10;87.10;;;;;;4990090;28;20030;-74
2021/03/21 04:15:55;;;;;;;63.40;41.10;;;8.10;87.20;;;;;;4992800;28;20171;-74
2021/03/21 04:18:23;;;;;;;67.90;40.92;;;8.10;87.30;;;;;;4992352;28;20389;-76
2021/03/21 04:21:00;;;;;;;63.33;41.35;;;8.10;87.40;;;;;;4993361;28;20153;-74
2021/03/21 04:23:39;;;;;;;66.07;43.10;;;8.10;87.50;;;;;;4989627;28;20029;-76
2021/03/21 04:26:10;;;;;;;69.13;42.20;;;8.10;87.70;;;;;;4993874;28;20491;-74
2021/03/21 04:28:42;;;;;;;69.22;43.88;;;8.10;87.70;;;;;;5003622;28;20084;-72
2021/03/21 04:31:12;;;;;;;64.85;42.20;;;8.10;87.70;;;;;;5005377;28;20076;-74
2021/03/21 04:33:45;;;;;;;72.53;46.40;;;8.10;87.90;;;;;;5004309;28;20042;-74
2021/03/21 04:36:14;;;;;;;70.68;46.95;;;8.10;87.90;;;;;;5001226;28;20389;-73
2021/03/21 04:38:42;;;;;;;63.97;42.38;;;8.10;87.90;;;;;;4994889;28;20042;-73
2021/03/21 04:41:12;;;;;;;63.45;43.42;;;8.10;88.00;;;;;;5002877;28;20453;-76
2021/03/21 04:43:48;;;;;;;63.45;41.92;;;8.10;88.10;;;;;;4998974;28;20038;-73
2021/03/21 04:46:33;;;;;;;56.50;39.53;;;8.10;88.00;;;;;;5005274;28;20055;-72
2021/03/21 04:48:58;;;;;;;;;;;8.10;88.10;;;;;;5001403;28;20184;-73
2021/03/21 04:51:28;;;;;;;58.53;38.78;;;8.10;88.00;;;;;;5004639;28;20008;-72
2021/03/21 04:54:05;;;;;;;57.70;40.30;;;8.10;88.00;;;;;;4993445;28;20026;-72
2021/03/21 04:56:45;;;;;;;54.97;38.83;;;8.10;88.10;;;;;;4992386;28;20537;-75
2021/03/21 04:59:22;;;;;;;59.58;37.92;;;8.10;88.10;;;;;;4996119;28;20033;-73
2021/03/21 05:02:01;;;;;;;55.17;37.65;;;8.10;88.10;;;;;;4996372;28;20046;-74
2021/03/21 05:04:34;;;;;;;53.58;37.28;;;8.20;88.00;;;;;;4994927;28;20701;-75
2021/03/21 05:07:27;;;;;;;51.22;36.75;;;8.20;87.80;;;;;;4997348;28;20030;-77
2021/03/21 05:09:59;;;;;;;52.22;36.08;;;8.30;87.70;;;;;;5000786;28;20038;-73
2021/03/21 05:12:44;;;;;;;51.97;36.88;;;8.20;87.70;;;;;;4993262;28;20477;-74
2021/03/21 05:15:23;;;;;;;50.60;33.83;;;8.20;87.60;;;;;;4992250;28;20026;-75
2021/03/21 05:18:33;;;;;;;49.63;34.45;;;8.30;87.60;;;;;;5012229;28;20100;-74
2021/03/21 05:21:28;;;;;;;55.05;36.50;;;8.30;87.50;;;;;;4952488;28;20324;-73
2021/03/21 05:24:11;;;;;;;49.10;34.95;;;8.30;87.40;;;;;;4998885;28;20297;-74
2021/03/21 05:26:49;;;;;;;52.20;37.90;;;8.30;87.40;;;;;;4998226;28;20037;-75
2021/03/21 05:29:46;;;;;;;49.22;36.10;;;8.30;87.40;;;;;;4997377;28;20078;-74
2021/03/21 05:32:15;;;;;;;53.00;37.20;;;8.20;87.50;;;;;;4984892;28;20038;-75
2021/03/21 05:34:42;;;;;;;51.92;37.60;;;8.20;87.50;;;;;;4996619;28;20121;-74
2021/03/21 05:37:44;;;;;;;50.40;35.60;;;8.20;87.50;;;;;;5007897;28;20102;-74
2021/03/21 05:40:48;;;;;;;50.47;34.25;;;8.20;87.30;;;;;;5013889;28;20172;-74
2021/03/21 05:43:28;;;;;;;51.70;35.33;;;8.10;87.40;;;;;;4996000;28;20042;-74
2021/03/21 05:46:15;;;;;;;54.03;35.92;;;8.10;87.60;;;;;;4996410;28;20469;-73
2021/03/21 05:49:18;;;;;;;60.30;38.63;;;8.10;87.70;;;;;;4997966;28;20121;-73
2021/03/21 05:52:01;;;;;;;63.20;38.75;;;8.10;87.70;;;;;;5011208;28;20442;-74
2021/03/21 05:54:59;;;;;;;61.40;37.05;;;7.90;88.10;;;;;;4996068;28;20469;-74
2021/03/21 05:58:04;;;;;;;62.17;38.90;;;7.90;88.40;;;;;;4992686;28;20499;-76
2021/03/21 06:00:57;;;;;;;61.90;38.17;;;7.90;88.50;;;;;;5011623;28;20030;-76
2021/03/21 06:03:49;;;;;;;65.95;38.05;;;7.90;88.60;;;;;;5000100;28;20038;-73
2021/03/21 06:06:45;;;;;;;64.18;37.97;;;7.90;88.60;;;;;;4996043;28;20707;-74
2021/03/21 06:09:36;;;;;;;57.55;35.08;;;7.80;88.50;;;;;;4994139;28;20050;-73
2021/03/21 06:12:13;;;;;;;57.55;35.15;;;7.80;88.40;;;;;;4996525;28;20389;-72
2021/03/21 06:15:17;;;;;;;60.03;36.20;;;7.80;88.40;;;;;;5001008;28;20034;-76
2021/03/21 06:18:00;;;;;;;56.85;33.17;;;7.80;88.10;;;;;;4997041;28;20481;-73
2021/03/21 06:20:40;;;;;;;54.35;31.50;;;7.80;87.70;;;;;;5013189;28;20393;-75
2021/03/21 06:23:41;;;;;;;56.25;32.40;;;7.80;87.60;;;;;;4992050;28;20033;-74
2021/03/21 06:26:20;;;;;;;48.80;29.27;;;7.80;87.30;;;;;;4991235;28;20042;-73
2021/03/21 06:29:18;;;;;;;48.90;26.70;;;7.80;87.20;;;;;;5001661;28;20508;-72
2021/03/21 06:32:08;;;;;;;38.80;23.80;;;7.80;86.80;;;;;;4996537;28;20033;-76
2021/03/21 06:35:11;;;;;;;36.30;20.67;;;7.80;86.40;;;;;;4997853;28;20706;-73
2021/03/21 06:38:08;;;;;;;36.38;19.98;;;7.70;86.00;;;;;;4996026;28;20034;-75
2021/03/21 06:40:48;;;;;;;33.72;19.25;;;7.80;85.90;;;;;;5002425;28;20026;-72
2021/03/21 06:43:19;;;;;;;30.27;17.33;;;7.70;85.60;;;;;;5013066;28;20034;-74
2021/03/21 06:45:57;;;;;;;26.30;15.00;;;7.70;85.40;;;;;;5004361;28;20046;-76
2021/03/21 06:48:34;;;;;;;22.25;12.70;;;7.70;84.60;;;;;;5003412;28;20038;-75
2021/03/21 06:51:28;;;;;;;22.10;11.95;;;7.70;84.60;;;;;;4996261;28;20485;-77
2021/03/21 06:54:16;;;;;;;21.00;12.73;;;7.70;84.30;;;;;;5000725;28;20048;-74
2021/03/21 06:57:23;;;;;;;28.02;12.95;;;7.60;84.40;;;;;;4993827;28;20374;-73
2021/03/21 07:00:15;;;;;;;22.58;12.07;;;7.70;84.70;;;;;;4980604;28;20038;-73
2021/03/21 07:03:18;;;;;;;24.30;11.32;;;7.80;84.50;;;;;;4998642;28;20188;-73
2021/03/21 07:05:56;;;;;;;19.48;10.95;;;7.80;83.90;;;;;;4993310;28;20060;-78
2021/03/21 07:08:35;;;;;;;15.75;8.02;;;7.80;83.90;;;;;;4991689;28;21254;-74
2021/03/21 07:11:24;;;;;;;19.27;7.50;;;7.70;83.30;;;;;;4992258;28;20054;-73
2021/03/21 07:14:08;;;;;;;15.93;6.40;;;7.70;83.00;;;;;;4979642;28;20112;-76
2021/03/21 07:17:10;;;;;;;17.65;7.65;;;7.70;82.90;;;;;;4994233;28;20030;-73
2021/03/21 07:19:57;;;;;;;17.48;8.23;;;7.70;83.20;;;;;;4991415;28;20050;-73
2021/03/21 07:22:29;;;;;;;13.45;6.55;;;7.80;82.90;;;;;;4993449;28;20050;-74
2021/03/21 07:25:19;;;;;;;16.50;7.15;;;7.90;82.70;;;;;;4993316;28;20060;-74
2021/03/21 07:27:49;;;;;;;15.55;6.50;;;7.80;82.40;;;;;;4988737;28;20043;-73
2021/03/21 07:30:15;;;;;;;14.85;5.80;;;7.90;82.00;;;;;;4993470;28;20104;-74
2021/03/21 07:33:02;;;;;;;12.77;5.50;;;7.80;82.00;;;;;;4996873;28;20116;-73
2021/03/21 07:35:54;;;;;;;12.68;5.40;;;7.80;81.10;;;;;;4992619;28;20049;-73
2021/03/21 07:38:57;;;;;;;13.80;5.18;;;7.90;81.00;;;;;;4996723;28;20371;-74
2021/03/21 07:41:51;;;;;;;12.98;4.55;;;7.80;80.40;;;;;;4995778;28;20354;-75
2021/03/21 07:44:47;;;;;;;12.57;5.30;;;7.80;80.10;;;;;;4995473;28;20041;-76
2021/03/21 07:47:13;;;;;;;10.57;3.78;;;7.90;80.00;;;;;;4995741;28;20092;-73
2021/03/21 07:49:38;;;;;;;11.63;4.03;;;8.00;79.50;;;;;;4992791;28;20853;-72
2021/03/21 07:52:33;;;;;;;13.68;4.28;;;8.10;79.10;;;;;;4997093;28;20046;-73
2021/03/21 07:55:09;;;;;;;13.20;4.07;;;8.20;78.60;;;;;;4988487;28;20394;-75
2021/03/21 07:57:53;;;;;;;11.73;3.75;;;8.30;78.10;;;;;;4998319;28;20042;-72
2021/03/21 08:00:20;;;;;;;11.82;3.38;;;8.50;78.40;;;;;;4997941;28;20355;-73
2021/03/21 08:02:48;;;;;;;11.88;3.75;;;8.50;76.90;;;;;;4993214;28;20033;-72
2021/03/21 08:05:19;;;;;;;10.02;3.10;;;8.60;77.10;;;;;;4996166;28;20041;-72
2021/03/21 08:07:48;;;;;;;12.05;3.53;;;8.40;76.60;;;;;;4990810;28;20482;-73
2021/03/21 08:10:22;;;;;;;15.32;3.90;;;8.50;77.70;;;;;;4997917;28;20109;-73
2021/03/21 08:13:03;;;;;;;12.13;4.57;;;8.50;77.20;;;;;;4991416;28;20113;-75
2021/03/21 08:15:32;;;;;;;14.30;4.20;;;8.30;77.70;;;;;;4993452;28;20457;-73
2021/03/21 08:18:13;;;;;;;12.57;3.20;;;8.30;78.10;;;;;;4998453;28;20030;-73
2021/03/21 08:20:45;;;;;;;15.85;3.83;;;8.30;77.90;;;;;;4995493;28;20094;-73
2021/03/21 08:23:19;;;;;;;9.95;3.33;;;8.40;78.20;;;;;;4993976;28;20073;-71
2021/03/21 08:25:45;;;;;;;11.25;3.67;;;8.30;78.10;;;;;;4994100;28;20154;-69
2021/03/21 08:28:18;;;;;;;12.52;3.53;;;8.30;78.30;;;;;;4994786;28;20050;-71
2021/03/21 08:30:55;;;;;;;12.77;3.22;;;8.30;78.40;;;;;;4997391;28;20604;-69
2021/03/21 08:33:41;;;;;;;12.55;3.30;;;8.40;78.40;;;;;;4988274;28;20053;-72
2021/03/21 08:36:27;;;;;;;12.70;3.92;;;8.40;78.80;;;;;;4992541;28;20144;-69
2021/03/21 08:39:30;;;;;;;10.55;3.80;;;8.40;79.00;;;;;;4989177;28;20048;-72
2021/03/21 08:41:59;;;;;;;10.63;3.67;;;8.50;78.90;;;;;;4991903;28;20096;-71
2021/03/21 08:44:36;;;;;;;16.15;4.30;;;8.50;79.10;;;;;;4987942;28;20030;-69
2021/03/21 08:47:03;;;;;;;14.98;4.15;;;8.60;79.30;;;;;;4990601;28;20034;-70
2021/03/21 08:49:38;;;;;;;14.35;3.63;;;8.60;79.30;;;;;;4989520;28;20047;-70
2021/03/21 08:52:05;;;;;;;14.20;4.20;;;8.60;79.20;;;;;;4990956;28;20037;-72
2021/03/21 08:54:36;;;;;;;10.02;3.08;;;8.60;79.10;;;;;;4988404;28;20548;-71
2021/03/21 08:57:28;;;;;;;11.55;3.90;;;8.80;79.10;;;;;;4995019;28;20038;-69
2021/03/21 09:00:28;;;;;;;16.63;4.10;;;8.80;77.80;;;;;;4997225;28;20457;-71
2021/03/21 09:02:54;;;;;;;11.63;4.20;;;8.80;78.20;;;;;;4994146;28;20038;-69
2021/03/21 09:05:23;;;;;;;15.98;4.72;;;8.80;78.40;;;;;;4994236;28;20041;-71
2021/03/21 09:07:48;;;;;;;13.57;3.53;;;8.80;78.50;;;;;;4986588;28;20069;-71
2021/03/21 09:10:23;;;;;;;12.73;3.15;;;8.80;77.70;;;;;;4985464;28;20177;-71
2021/03/21 09:12:55;;;;;;;14.20;3.60;;;8.90;76.90;;;;;;4993336;28;20432;-72
2021/03/21 09:15:29;;;;;;;11.90;3.33;;;8.90;77.10;;;;;;4991630;28;20133;-70
2021/03/21 09:18:34;;;;;;;10.35;3.05;;;9.10;76.80;;;;;;4993156;28;20384;-69
2021/03/21 09:21:14;;;;;;;10.95;3.15;;;9.20;76.50;;;;;;4964296;28;20568;-70
2021/03/21 09:24:08;;;;;;;13.55;4.00;;;9.10;75.80;;;;;;5006120;28;20358;-69
2021/03/21 09:26:34;;;;;;;12.20;4.07;;;9.10;75.90;;;;;;5004952;28;20044;-73
2021/03/21 09:29:16;;;;;;;11.82;3.30;;;9.00;74.80;;;;;;4997371;28;20034;-70
2021/03/21 09:31:42;;;;;;;11.20;3.03;;;8.90;75.00;;;;;;4999551;28;20511;-71
2021/03/21 09:34:37;;;;;;;12.20;3.70;;;9.00;75.90;;;;;;4993495;28;20118;-69
2021/03/21 09:37:11;;;;;;;14.52;3.15;;;8.90;76.90;;;;;;5001476;28;20041;-73
2021/03/21 09:39:53;;;;;;;13.73;2.90;;;9.00;76.90;;;;;;4998787;28;20121;-69
2021/03/21 09:42:19;;;;;;;12.98;2.58;;;8.90;75.80;;;;;;4998050;28;20120;-74
2021/03/21 09:44:46;;;;;;;10.93;2.63;;;9.00;75.20;;;;;;4990912;28;20120;-71
2021/03/21 09:47:30;;;;;;;14.05;3.35;;;8.90;74.80;;;;;;4996461;28;20054;-68
2021/03/21 09:50:34;;;;;;;12.20;3.85;;;8.90;75.10;;;;;;4999106;28;20433;-69
2021/03/21 09:53:25;;;;;;;13.18;2.85;;;8.90;75.20;;;;;;4990924;28;20041;-70
2021/03/21 09:55:54;;;;;;;15.82;3.00;;;8.80;75.00;;;;;;5003001;28;20037;-69
2021/03/21 09:58:41;;;;;;;10.43;3.03;;;8.80;74.90;;;;;;4991909;28;20034;-72
2021/03/21 10:01:39;;;;;;;14.57;4.50;;;8.80;75.30;;;;;;4981154;28;20424;-76
2021/03/21 10:04:31;;;;;;;11.23;3.10;;;9.00;74.30;;;;;;4981716;28;20029;-71
2021/03/21 10:07:07;;;;;;;15.52;3.80;;;9.10;72.20;;;;;;4972596;28;20654;-74
2021/03/21 10:09:34;;;;;;;15.45;5.40;;;9.20;70.90;;;;;;4984633;28;20457;-72
2021/03/21 10:12:11;;;;;;;13.85;3.75;;;9.10;70.90;;;;;;4984287;28;20311;-69
2021/03/21 10:14:37;;;;;;;15.35;3.90;;;9.10;72.30;;;;;;4981048;28;20524;-71
2021/03/21 10:17:17;;;;;;;11.77;2.53;;;8.80;73.90;;;;;;4983091;28;20322;-72
2021/03/21 10:19:51;;;;;;;13.95;3.35;;;8.70;74.30;;;;;;4982806;28;20043;-72
2021/03/21 10:22:17;;;;;;;12.68;2.90;;;8.60;74.10;;;;;;4980676;28;20038;-73
2021/03/21 10:24:44;;;;;;;12.30;3.28;;;8.80;73.20;;;;;;4987275;28;20378;-69
2021/03/21 10:27:18;;;;;;;11.48;3.40;;;9.00;73.00;;;;;;4983625;28;20030;-72
2021/03/21 10:30:05;;;;;;;12.73;3.05;;;9.20;72.70;;;;;;4987316;28;20038;-72
2021/03/21 10:32:33;;;;;;;10.68;2.55;;;9.10;71.80;;;;;;4982985;28;20034;-72
2021/03/21 10:35:00;;;;;;;11.75;2.47;;;9.00;72.00;;;;;;4985372;28;20026;-73
2021/03/21 10:37:41;;;;;;;12.98;3.45;;;8.60;73.50;;;;;;4982009;28;20847;-72
2021/03/21 10:40:24;;;;;;;16.42;3.95;;;8.70;74.70;;;;;;4985990;28;20345;-68
2021/03/21 10:42:56;;;;;;;13.65;3.50;;;8.80;75.70;;;;;;4987008;28;20049;-70
2021/03/21 10:45:52;;;;;;;12.77;3.15;;;8.60;75.90;;;;;;4982096;28;20385;-70
2021/03/21 10:48:18;;;;;;;16.48;2.95;;;8.70;75.60;;;;;;4981325;28;20042;-71
2021/03/21 10:51:00;;;;;;;13.35;3.47;;;9.00;75.10;;;;;;5002374;28;20069;-69
2021/03/21 10:53:30;;;;;;;12.02;2.85;;;9.20;73.70;;;;;;4987784;28;20041;-74
2021/03/21 10:56:17;;;;;;;14.48;3.70;;;9.10;71.50;;;;;;4991935;28;20029;-72
2021/03/21 10:58:52;;;;;;;16.52;3.85;;;9.00;71.90;;;;;;4991003;28;20022;-71
2021/03/21 11:01:20;;;;;;;14.13;3.42;;;8.90;73.20;;;;;;4984685;28;20057;-73
2021/03/21 11:03:58;;;;;;;9.93;2.60;;;8.90;73.10;;;;;;4992503;28;20038;-73
2021/03/21 11:06:25;;;;;;;8.88;2.45;;;9.00;71.80;;;;;;4984170;28;20045;-74
2021/03/21 11:08:51;;;;;;;11.77;2.67;;;8.90;70.60;;;;;;4989938;28;20041;-72
2021/03/21 11:11:23;;;;;;;14.05;3.00;;;9.00;70.60;;;;;;4989647;28;20029;-71
2021/03/21 11:13:50;;;;;;;16.70;3.55;;;9.20;68.80;;;;;;5001073;28;20083;-73
2021/03/21 11:16:19;;;;;;;14.40;3.55;;;9.30;67.90;;;;;;4998848;28;20395;-73
2021/03/21 11:18:52;;;;;;;13.95;2.72;;;9.20;68.30;;;;;;4989999;28;20046;-70
2021/03/21 11:21:20;;;;;;;15.60;3.45;;;9.30;67.00;;;;;;4996416;28;20132;-70
2021/03/21 11:23:48;;;;;;;17.52;3.30;;;9.20;66.10;;;;;;4995565;28;20030;-70
2021/03/21 11:26:22;;;;;;;14.52;3.08;;;9.20;66.30;;;;;;4995304;28;20038;-71
2021/03/21 11:28:48;;;;;;;16.90;4.07;;;9.40;66.80;;;;;;4994262;28;20046;-70
2021/03/21 11:31:30;;;;;;;12.10;3.22;;;9.40;66.80;;;;;;5000622;28;20057;-70
2021/03/21 11:33:56;;;;;;;14.80;3.63;;;9.30;66.00;;;;;;4997562;28;20445;-74
2021/03/21 11:36:23;;;;;;;16.40;4.40;;;9.10;67.60;;;;;;5004121;28;20033;-72
2021/03/21 11:38:51;;;;;;;15.32;3.47;;;9.40;67.40;;;;;;4993763;28;20553;-69
2021/03/21 11:41:24;;;;;;;13.57;3.05;;;9.40;67.30;;;;;;4999073;28;20030;-71
2021/03/21 11:43:51;;;;;;;19.45;4.28;;;9.40;67.10;;;;;;4999155;28;20057;-71
2021/03/21 11:46:30;;;;;;;12.77;3.45;;;9.30;67.80;;;;;;4996322;28;20105;-71
2021/03/21 11:48:58;;;;;;;16.42;3.92;;;9.30;67.30;;;;;;4996652;28;20034;-69
2021/03/21 11:51:27;;;;;;;18.63;3.83;;;9.40;65.40;;;;;;5002240;28;20458;-70
2021/03/21 11:53:55;;;;;;;17.95;4.35;;;9.60;63.10;;;;;;4993822;28;20512;-70
2021/03/21 11:56:54;;;;;;;16.58;3.88;;;9.60;63.30;;;;;;4998579;28;20037;-73
2021/03/21 11:59:26;;;;;;;17.65;4.03;;;9.60;62.80;;;;;;4994716;28;20030;-71
2021/03/21 12:01:56;;;;;;;20.65;5.97;;;9.60;62.90;;;;;;4996672;28;20029;-72
2021/03/21 12:04:31;;;;;;;21.95;5.00;;;9.60;62.20;;;;;;4990059;28;20487;-70
2021/03/21 12:06:58;;;;;;;19.15;4.22;;;9.60;63.60;;;;;;5001867;28;20030;-71
2021/03/21 12:09:31;;;;;;;21.67;3.42;;;9.50;63.90;;;;;;5000496;28;20683;-73
2021/03/21 12:12:01;;;;;;;17.35;4.53;;;9.60;64.10;;;;;;5016785;28;20033;-71
2021/03/21 12:14:32;;;;;;;20.00;4.43;;;9.60;64.70;;;;;;4998058;28;20685;-71
2021/03/21 12:16:59;;;;;;;21.00;4.53;;;9.40;65.10;;;;;;4988254;28;20121;-69
2021/03/21 12:19:25;;;;;;;21.67;3.95;;;9.40;66.10;;;;;;4974857;28;20031;-74
2021/03/21 12:21:53;;;;;;;15.73;4.32;;;9.20;66.20;;;;;;4991079;28;20042;-70
2021/03/21 12:24:24;;;;;;;17.75;4.20;;;9.40;66.50;;;;;;4973966;28;20051;-70
2021/03/21 12:27:21;;;;;;;22.00;4.63;;;9.60;66.20;;;;;;4979898;28;20035;-70
2021/03/21 12:29:47;;;;;;;19.98;3.90;;;9.50;66.00;;;;;;4996259;28;20042;-71
2021/03/21 12:32:38;;;;;;;22.55;4.47;;;9.50;65.60;;;;;;4995688;28;20390;-71
2021/03/21 12:35:07;;;;;;;17.48;3.70;;;9.50;65.20;;;;;;4998879;28;20021;-70
2021/03/21 12:37:53;;;;;;;19.52;4.80;;;9.20;65.20;;;;;;4997969;28;20034;-75
2021/03/21 12:40:29;;;;;;;14.35;3.97;;;9.20;64.20;;;;;;5006453;28;20071;-72
2021/03/21 12:42:55;;;;;;;16.52;4.03;;;9.30;63.70;;;;;;5001362;28;20058;-70
2021/03/21 12:45:28;;;;;;;18.33;3.97;;;9.20;63.00;;;;;;5001233;28;20050;-70
2021/03/21 12:47:54;;;;;;;20.08;4.57;;;9.20;63.20;;;;;;5008447;28;20481;-70
2021/03/21 12:50:35;;;;;;;21.67;4.28;;;9.30;64.00;;;;;;4998683;28;20068;-71
2021/03/21 12:53:07;;;;;;;24.95;5.15;;;9.40;64.50;;;;;;4997332;28;20041;-71
2021/03/21 12:55:32;;;;;;;19.30;3.97;;;9.30;65.10;;;;;;5007376;28;20061;-71
2021/03/21 12:57:58;;;;;;;21.95;5.05;;;9.20;66.00;;;;;;5003991;28;21317;-70
2021/03/21 13:00:31;;;;;;;23.75;4.65;;;9.00;66.50;;;;;;5012617;28;20026;-70
2021/03/21 13:02:58;;;;;;;14.77;4.88;;;9.00;66.70;;;;;;5006185;28;20377;-71
2021/03/21 13:05:27;;;;;;;19.02;4.18;;;8.90;66.60;;;;;;4996125;28;20030;-70
2021/03/21 13:07:53;;;;;;;20.95;5.47;;;9.10;66.40;;;;;;5017403;28;20067;-70
2021/03/21 13:10:19;;;;;;;20.35;4.45;;;9.00;66.00;;;;;;5004615;28;20498;-70
2021/03/21 13:12:45;;;;;;;19.45;3.95;;;8.80;65.50;;;;;;4995502;28;20038;-71
2021/03/21 13:15:11;;;;;;;20.95;4.38;;;9.00;66.20;;;;;;5000794;28;20048;-70
2021/03/21 13:17:38;;;;;;;17.33;4.03;;;8.90;65.70;;;;;;5006000;28;20494;-72
2021/03/21 13:20:09;;;;;;;19.65;3.92;;;9.10;66.60;;;;;;5002774;28;20068;-71
2021/03/21 13:22:35;;;;;;;21.33;4.03;;;9.30;65.10;;;;;;5002805;28;20168;-73
2021/03/21 13:25:01;;;;;;;16.88;3.25;;;9.40;64.50;;;;;;5001656;28;20105;-71
2021/03/21 13:27:26;;;;;;;18.00;3.95;;;9.30;63.90;;;;;;5002668;28;20030;-72
2021/03/21 13:29:53;;;;;;;20.17;4.13;;;9.30;64.20;;;;;;5005163;28;20038;-70
2021/03/21 13:32:19;;;;;;;17.48;4.30;;;9.10;64.00;;;;;;5001406;28;20057;-71